Главная страница
METAR-TAF:

METAR-TAF

Аэропорты :

Morristown, Нью-Джерси, США

широта: 40-48N, долгота: 074-25W, высота над уровнем моря: 57 м

Текущие метеонаблюдения

Эта сводка был подготовлена 50 минут назад, в 20:45 UTC
Ветер 12 Узел от западно-северо-западный с порывами до 33 Узел
Температура 14°C
Влажность 58%
Давление 997 hPa
Видимость: 16.1 км
Рассеянная облачность на высоте 4700 фута

METAR: KMMU 172045Z 30012G33KT 10SM BKN047 14/06 A2944

Время: 17:35 (21:35 UTC)


TAF: отсутствует

Метеонаблюдения и прогнозы для более 4000 аэропортов (сводки METAR и TAF).

Имеющиеся станции представлены на карте желтыми и красными точками.

Чтобы увидеть название станции, наведите на нее мышь.

Затем щелкните, чтобы увидеть метеонаблюдения и метеопрогнозы.

Управление картой: чтобы увеличить масштаб, щелкните зеленые кнопки с черным крестиком; чтобы уменьшить масштаб, щелкните зеленую кнопку с тире; для просмотра соседних карт щелкайте зеленые стрелки.


METAR-TAF: